Time;durP1;ratioP1;P1;durP2;ratioP2;P2;SDS_P1;SDS_P2;PMS_P1;PMS_P2;Temp;Humidity;BMP_temperature;BMP_pressure;BME280_temperature;BME280_humidity;BME280_pressure;Samples;Min_cycle;Max_cycle;Signal;HPM_P1;HPM_P2
2022/03/14 00:00:42;;;;;;;18.10;10.48;;;;;;;;;;4932655;29;20052;-67
2022/03/14 00:03:11;;;;;;;17.08;11.15;;;;;;;;;;4941440;29;20055;-68
2022/03/14 00:05:38;;;;;;;18.60;11.68;;;;;;;;;;4933575;29;20062;-67
2022/03/14 00:08:06;;;;;;;18.33;10.90;;;;;;;;;;4919718;29;20106;-67
2022/03/14 00:10:34;;;;;;;18.98;11.50;;;;;;;;;;4933685;29;20499;-67
2022/03/14 00:13:01;;;;;;;20.77;11.75;;;;;;;;;;4932611;29;20088;-67
2022/03/14 00:15:30;;;;;;;18.75;11.65;;;;;;;;;;4926717;29;20052;-68
2022/03/14 00:17:58;;;;;;;16.20;11.18;;;;;;;;;;4913827;29;20060;-68
2022/03/14 00:20:25;;;;;;;18.80;11.68;;;;;;;;;;4926983;29;20538;-67
2022/03/14 00:22:52;;;;;;;18.55;11.70;;;;;;;;;;4932835;29;20052;-68
2022/03/14 00:25:19;;;;;;;18.75;11.75;;;;;;;;;;4917430;29;20056;-67
2022/03/14 00:27:45;;;;;;;17.70;10.90;;;;;;;;;;4917378;29;20472;-70
2022/03/14 00:30:12;;;;;;;18.70;11.40;;;;;;;;;;4932888;29;20079;-68
2022/03/14 00:32:40;;;;;;;17.83;10.95;;;;;;;;;;4920265;29;20051;-68
2022/03/14 00:35:07;;;;;;;18.95;11.95;;;;;;;;;;4936170;29;20051;-68
2022/03/14 00:37:35;;;;;;;22.23;12.18;;;;;;;;;;4937358;29;20089;-68
2022/03/14 00:40:03;;;;;;;19.92;11.65;;;;;;;;;;4937072;29;20108;-68
2022/03/14 00:42:30;;;;;;;17.92;11.90;;;;;;;;;;4920087;29;20111;-67
2022/03/14 00:44:56;;;;;;;17.10;11.18;;;;;;;;;;4935940;29;20051;-68
2022/03/14 00:47:23;;;;;;;14.95;11.07;;;;;;;;;;4936891;29;20059;-67
2022/03/14 00:49:49;;;;;;;17.05;10.82;;;;;;;;;;4935666;29;20563;-67
2022/03/14 00:52:16;;;;;;;18.23;11.77;;;;;;;;;;4927243;29;20088;-69
2022/03/14 00:54:44;;;;;;;20.35;12.25;;;;;;;;;;4935854;29;20506;-69
2022/03/14 00:57:11;;;;;;;17.50;10.65;;;;;;;;;;4936789;29;20051;-68
2022/03/14 00:59:39;;;;;;;15.70;10.98;;;;;;;;;;4935318;29;20506;-68
2022/03/14 01:02:07;;;;;;;18.13;11.23;;;;;;;;;;4936678;29;20047;-67
2022/03/14 01:04:34;;;;;;;17.05;11.13;;;;;;;;;;4936601;29;20048;-68
2022/03/14 01:07:02;;;;;;;20.25;11.18;;;;;;;;;;4936612;29;20051;-69
2022/03/14 01:09:32;;;;;;;17.48;11.07;;;;;;;;;;4935285;29;20132;-68
2022/03/14 01:11:59;;;;;;;21.65;11.50;;;;;;;;;;4936831;29;20040;-69
2022/03/14 01:14:26;;;;;;;19.45;11.63;;;;;;;;;;4935265;29;20411;-68
2022/03/14 01:16:53;;;;;;;21.70;11.85;;;;;;;;;;4936779;29;20060;-68
2022/03/14 01:19:20;;;;;;;22.38;11.45;;;;;;;;;;4919596;29;20051;-68
2022/03/14 01:21:47;;;;;;;22.85;11.90;;;;;;;;;;4934953;29;20111;-70
2022/03/14 01:24:14;;;;;;;16.35;10.50;;;;;;;;;;4919514;29;20051;-68
2022/03/14 01:26:40;;;;;;;22.15;12.23;;;;;;;;;;4935077;29;20052;-68
2022/03/14 01:29:07;;;;;;;20.88;12.52;;;;;;;;;;4919563;29;20087;-69
2022/03/14 01:31:34;;;;;;;19.00;11.27;;;;;;;;;;4931341;29;20517;-68
2022/03/14 01:34:01;;;;;;;22.10;11.65;;;;;;;;;;4917304;29;20059;-65
2022/03/14 01:36:27;;;;;;;17.23;11.40;;;;;;;;;;4916268;29;20068;-65
2022/03/14 01:38:55;;;;;;;21.80;11.98;;;;;;;;;;4917056;29;20120;-65
2022/03/14 01:41:26;;;;;;;18.50;11.07;;;;;;;;;;4915706;29;20048;-66
2022/03/14 01:43:53;;;;;;;20.60;12.02;;;;;;;;;;4916185;29;20419;-65
2022/03/14 01:46:20;;;;;;;19.77;12.75;;;;;;;;;;4917069;29;20056;-66
2022/03/14 01:48:47;;;;;;;19.40;12.23;;;;;;;;;;4917226;29;20052;-65
2022/03/14 01:51:16;;;;;;;15.95;11.73;;;;;;;;;;4915493;29;20209;-66
2022/03/14 01:53:43;;;;;;;15.23;10.65;;;;;;;;;;4915679;29;20052;-66
2022/03/14 01:56:12;;;;;;;14.60;10.90;;;;;;;;;;4915700;29;20107;-65
2022/03/14 01:58:39;;;;;;;17.25;9.82;;;;;;;;;;4915856;29;20052;-65
2022/03/14 02:01:06;;;;;;;14.57;9.38;;;;;;;;;;4915353;29;20044;-66
2022/03/14 02:03:33;;;;;;;14.02;8.13;;;;;;;;;;4934513;29;20411;-65
2022/03/14 02:06:00;;;;;;;17.23;9.85;;;;;;;;;;4935561;29;20059;-67
2022/03/14 02:08:26;;;;;;;16.33;9.25;;;;;;;;;;4935469;29;20095;-65
2022/03/14 02:10:53;;;;;;;12.35;8.70;;;;;;;;;;4935447;29;20181;-65
2022/03/14 02:13:19;;;;;;;11.10;7.47;;;;;;;;;;4933983;29;20060;-65
2022/03/14 02:15:46;;;;;;;9.98;7.43;;;;;;;;;;4915327;29;20495;-66
2022/03/14 02:18:13;;;;;;;10.57;7.30;;;;;;;;;;4916484;29;20431;-65
2022/03/14 02:20:40;;;;;;;10.27;6.55;;;;;;;;;;4916047;29;20052;-65
2022/03/14 02:23:06;;;;;;;7.68;6.05;;;;;;;;;;4926182;29;20048;-66
2022/03/14 02:25:34;;;;;;;8.43;6.20;;;;;;;;;;4933925;29;20052;-66
2022/03/14 02:28:02;;;;;;;8.98;6.55;;;;;;;;;;4934041;29;20051;-65
2022/03/14 02:30:28;;;;;;;9.00;6.72;;;;;;;;;;4934622;29;20060;-67
2022/03/14 02:32:58;;;;;;;9.35;6.68;;;;;;;;;;4935252;29;20051;-65
2022/03/14 02:35:24;;;;;;;9.82;6.80;;;;;;;;;;4935109;29;20099;-65
2022/03/14 02:37:51;;;;;;;8.23;6.30;;;;;;;;;;4934956;29;20060;-66
2022/03/14 02:40:17;;;;;;;7.70;5.65;;;;;;;;;;4934672;29;20107;-68
2022/03/14 02:42:44;;;;;;;7.03;5.78;;;;;;;;;;4934623;29;20080;-67
2022/03/14 02:45:11;;;;;;;9.27;5.47;;;;;;;;;;4934977;29;20052;-68
2022/03/14 02:47:38;;;;;;;7.45;5.50;;;;;;;;;;4933391;29;20500;-67
2022/03/14 02:50:05;;;;;;;6.45;4.78;;;;;;;;;;4917866;29;20055;-68
2022/03/14 02:52:32;;;;;;;5.05;4.03;;;;;;;;;;4921237;29;20044;-68
2022/03/14 02:54:59;;;;;;;6.10;4.05;;;;;;;;;;4933903;29;20055;-67
2022/03/14 02:57:26;;;;;;;5.80;3.90;;;;;;;;;;4934812;29;20059;-69
2022/03/14 02:59:54;;;;;;;5.35;3.58;;;;;;;;;;4933409;29;20051;-67
2022/03/14 03:02:25;;;;;;;4.90;3.53;;;;;;;;;;4933254;29;20063;-69
2022/03/14 03:04:52;;;;;;;4.60;3.03;;;;;;;;;;4934616;29;20115;-68
2022/03/14 03:07:19;;;;;;;3.83;2.70;;;;;;;;;;4934807;29;20055;-68
2022/03/14 03:09:46;;;;;;;5.65;2.85;;;;;;;;;;4933276;29;20081;-68
2022/03/14 03:12:13;;;;;;;3.92;2.80;;;;;;;;;;4934456;29;20056;-68
2022/03/14 03:14:42;;;;;;;4.97;2.75;;;;;;;;;;4934654;29;20107;-68
2022/03/14 03:17:08;;;;;;;4.28;2.80;;;;;;;;;;4934456;29;20103;-69
2022/03/14 03:19:35;;;;;;;8.43;3.33;;;;;;;;;;4933382;29;20087;-68
2022/03/14 03:22:02;;;;;;;5.22;2.80;;;;;;;;;;4933405;29;20055;-68
2022/03/14 03:24:29;;;;;;;5.30;3.55;;;;;;;;;;4934566;29;20052;-68
2022/03/14 03:26:56;;;;;;;3.95;3.28;;;;;;;;;;4934474;29;20578;-68
2022/03/14 03:29:24;;;;;;;5.07;3.13;;;;;;;;;;4934169;29;20051;-69
2022/03/14 03:31:50;;;;;;;4.70;3.20;;;;;;;;;;4954199;23;20103;-70
2022/03/14 03:34:17;;;;;;;4.47;3.10;;;;;;;;;;4917763;29;20055;-70
2022/03/14 03:36:44;;;;;;;4.70;2.85;;;;;;;;;;4934539;29;20047;-70
2022/03/14 03:39:10;;;;;;;4.32;3.47;;;;;;;;;;4934656;29;20124;-71
2022/03/14 03:41:38;;;;;;;4.32;3.20;;;;;;;;;;4934177;29;20111;-70
2022/03/14 03:44:06;;;;;;;4.43;3.40;;;;;;;;;;4934380;29;20055;-70
2022/03/14 03:46:33;;;;;;;4.35;3.00;;;;;;;;;;4934284;29;20114;-71
2022/03/14 03:48:59;;;;;;;5.05;3.50;;;;;;;;;;4933305;29;20099;-70
2022/03/14 03:51:26;;;;;;;5.10;3.15;;;;;;;;;;4933904;29;20419;-70
2022/03/14 03:53:52;;;;;;;4.38;3.45;;;;;;;;;;4934329;29;20103;-71
2022/03/14 03:56:19;;;;;;;5.63;3.50;;;;;;;;;;4933002;29;20084;-70
2022/03/14 03:58:46;;;;;;;4.43;3.45;;;;;;;;;;4934119;29;20106;-70
2022/03/14 04:01:19;;;;;;;4.00;3.08;;;;;;;;;;4937667;29;20093;-70
2022/03/14 04:03:52;;;;;;;6.68;3.45;;;;;;;;;;4936929;29;20064;-70
2022/03/14 04:06:26;;;;;;;4.60;3.45;;;;;;;;;;4937870;29;20502;-71
2022/03/14 04:08:54;;;;;;;3.95;3.17;;;;;;;;;;4936461;29;20562;-71
2022/03/14 04:11:22;;;;;;;5.78;3.90;;;;;;;;;;4937410;29;20510;-71
2022/03/14 04:13:49;;;;;;;4.75;3.65;;;;;;;;;;4937527;29;20052;-70
2022/03/14 04:16:17;;;;;;;5.40;3.35;;;;;;;;;;4937673;29;20063;-70
2022/03/14 04:18:45;;;;;;;4.68;3.30;;;;;;;;;;4937593;29;20059;-70
2022/03/14 04:21:13;;;;;;;5.38;3.80;;;;;;;;;;4937499;29;20099;-70
2022/03/14 04:23:40;;;;;;;3.75;3.40;;;;;;;;;;4935433;29;20083;-70
2022/03/14 04:26:07;;;;;;;4.75;3.60;;;;;;;;;;4936236;29;20486;-70
2022/03/14 04:28:36;;;;;;;4.20;3.47;;;;;;;;;;4937437;29;20056;-71
2022/03/14 04:31:03;;;;;;;4.10;3.58;;;;;;;;;;4937161;29;20055;-70
2022/03/14 04:33:30;;;;;;;6.38;3.78;;;;;;;;;;4937206;29;20052;-70
2022/03/14 04:35:57;;;;;;;6.65;3.90;;;;;;;;;;4937258;29;20059;-69
2022/03/14 04:38:27;;;;;;;3.60;3.22;;;;;;;;;;4937842;29;20056;-70
2022/03/14 04:40:54;;;;;;;6.28;3.70;;;;;;;;;;4939357;29;20051;-70
2022/03/14 04:43:21;;;;;;;5.53;4.28;;;;;;;;;;4936606;29;20048;-70
2022/03/14 04:45:49;;;;;;;7.63;4.75;;;;;;;;;;4938378;29;20055;-71
2022/03/14 04:48:16;;;;;;;6.00;4.70;;;;;;;;;;4938644;29;20055;-71
2022/03/14 04:50:43;;;;;;;5.75;4.25;;;;;;;;;;4936802;29;20051;-70
2022/03/14 04:53:09;;;;;;;5.60;4.75;;;;;;;;;;4935410;29;20111;-70
2022/03/14 04:55:36;;;;;;;5.28;4.25;;;;;;;;;;4939300;29;20059;-71
2022/03/14 04:58:03;;;;;;;6.85;4.50;;;;;;;;;;4938262;29;20051;-71
2022/03/14 05:00:32;;;;;;;5.38;4.60;;;;;;;;;;4937113;29;20052;-71
2022/03/14 05:03:01;;;;;;;4.93;4.32;;;;;;;;;;4927053;29;20058;-71
2022/03/14 05:05:30;;;;;;;5.72;4.10;;;;;;;;;;4917520;29;20134;-71
2022/03/14 05:07:56;;;;;;;6.25;4.75;;;;;;;;;;4920677;29;20048;-71
2022/03/14 05:10:23;;;;;;;8.05;4.53;;;;;;;;;;4936198;29;20047;-71
2022/03/14 05:12:50;;;;;;;8.27;5.93;;;;;;;;;;4928075;29;20108;-71
2022/03/14 05:15:17;;;;;;;10.32;5.10;;;;;;;;;;4918297;29;20059;-71
2022/03/14 05:17:44;;;;;;;6.03;4.97;;;;;;;;;;4918101;29;20059;-71
2022/03/14 05:20:11;;;;;;;8.00;6.03;;;;;;;;;;4918254;29;20052;-71
2022/03/14 05:22:49;;;;;;;7.53;5.90;;;;;;;;;;4916621;29;20103;-71
2022/03/14 05:25:19;;;;;;;7.97;5.18;;;;;;;;;;4917886;29;20463;-71
2022/03/14 05:27:47;;;;;;;6.72;5.38;;;;;;;;;;4917704;29;20052;-71
2022/03/14 05:30:14;;;;;;;6.75;5.10;;;;;;;;;;4917077;29;20471;-71
2022/03/14 05:32:42;;;;;;;8.10;5.82;;;;;;;;;;4918837;29;20052;-71
2022/03/14 05:35:11;;;;;;;7.97;5.70;;;;;;;;;;4918934;29;20052;-71
2022/03/14 05:37:39;;;;;;;7.70;5.40;;;;;;;;;;4936137;29;20115;-70
2022/03/14 05:40:09;;;;;;;7.93;5.97;;;;;;;;;;4936303;29;20052;-72
2022/03/14 05:42:36;;;;;;;7.38;5.72;;;;;;;;;;4936241;29;20491;-71
2022/03/14 05:45:04;;;;;;;7.55;5.72;;;;;;;;;;4935030;29;20102;-71
2022/03/14 05:47:30;;;;;;;6.22;5.00;;;;;;;;;;4916987;29;20052;-70
2022/03/14 05:49:57;;;;;;;7.50;5.25;;;;;;;;;;4927931;29;20147;-71
2022/03/14 05:52:23;;;;;;;7.05;5.45;;;;;;;;;;4928330;29;20043;-71
2022/03/14 05:54:50;;;;;;;5.97;5.20;;;;;;;;;;4930303;29;20103;-71
2022/03/14 05:57:17;;;;;;;7.13;6.10;;;;;;;;;;4917878;29;20055;-70
2022/03/14 05:59:43;;;;;;;6.47;5.60;;;;;;;;;;4916664;29;20056;-72
2022/03/14 06:02:10;;;;;;;8.32;6.13;;;;;;;;;;4916925;29;20044;-71
2022/03/14 06:04:39;;;;;;;9.85;5.70;;;;;;;;;;4917031;29;20056;-70
2022/03/14 06:07:06;;;;;;;7.68;6.10;;;;;;;;;;4916592;29;20140;-71
2022/03/14 06:09:33;;;;;;;7.68;5.80;;;;;;;;;;4916682;29;20060;-71
2022/03/14 06:11:59;;;;;;;9.98;5.75;;;;;;;;;;4916610;29;20127;-70
2022/03/14 06:14:27;;;;;;;5.97;4.20;;;;;;;;;;4921538;29;20059;-71
2022/03/14 06:16:53;;;;;;;4.07;3.20;;;;;;;;;;4916429;29;20059;-71
2022/03/14 06:19:20;;;;;;;4.20;2.83;;;;;;;;;;4915722;29;20059;-73
2022/03/14 06:21:47;;;;;;;3.95;2.30;;;;;;;;;;4916101;29;20053;-71
2022/03/14 06:24:14;;;;;;;5.13;2.22;;;;;;;;;;4916785;29;20055;-72
2022/03/14 06:26:41;;;;;;;2.25;1.50;;;;;;;;;;4916427;29;20400;-71
2022/03/14 06:29:07;;;;;;;1.73;1.60;;;;;;;;;;4916448;29;20048;-71
2022/03/14 06:31:34;;;;;;;2.85;1.27;;;;;;;;;;4916115;29;20052;-74
2022/03/14 06:34:01;;;;;;;2.42;1.80;;;;;;;;;;4918935;29;20498;-72
2022/03/14 06:36:28;;;;;;;2.63;1.42;;;;;;;;;;4934256;29;20316;-72
2022/03/14 06:38:58;;;;;;;1.52;1.10;;;;;;;;;;4935549;29;20047;-72
2022/03/14 06:41:26;;;;;;;1.58;0.90;;;;;;;;;;4918634;29;20119;-73
2022/03/14 06:43:56;;;;;;;2.67;1.15;;;;;;;;;;4925863;29;20104;-72
2022/03/14 06:46:23;;;;;;;1.40;0.75;;;;;;;;;;4900770;29;20107;-73
2022/03/14 06:48:50;;;;;;;1.77;1.40;;;;;;;;;;4916313;29;20139;-72
2022/03/14 06:51:17;;;;;;;1.90;0.82;;;;;;;;;;4916132;29;20063;-73
2022/03/14 06:53:44;;;;;;;1.30;0.77;;;;;;;;;;4914813;29;20099;-71
2022/03/14 06:56:11;;;;;;;2.47;0.80;;;;;;;;;;4914543;29;20056;-70
2022/03/14 06:58:37;;;;;;;3.97;1.30;;;;;;;;;;4914019;29;20103;-69
2022/03/14 07:01:04;;;;;;;4.13;0.80;;;;;;;;;;4913902;29;20084;-68
2022/03/14 07:03:31;;;;;;;2.33;0.80;;;;;;;;;;4913986;29;20451;-68
2022/03/14 07:05:57;;;;;;;3.38;1.13;;;;;;;;;;4913846;29;20508;-68
2022/03/14 07:08:25;;;;;;;3.55;0.95;;;;;;;;;;4913698;29;20495;-68
2022/03/14 07:10:54;;;;;;;2.53;0.68;;;;;;;;;;4913234;29;20063;-69
2022/03/14 07:13:20;;;;;;;5.85;1.13;;;;;;;;;;4913631;29;20531;-69
2022/03/14 07:15:47;;;;;;;3.85;0.77;;;;;;;;;;4913823;29;20064;-68
2022/03/14 07:18:14;;;;;;;3.42;0.90;;;;;;;;;;4913601;29;20056;-69
2022/03/14 07:20:40;;;;;;;3.72;0.80;;;;;;;;;;4913523;29;20073;-68
2022/03/14 07:23:07;;;;;;;3.95;1.17;;;;;;;;;;4912940;29;20594;-68
2022/03/14 07:25:40;;;;;;;4.43;1.15;;;;;;;;;;4913733;29;20071;-68
2022/03/14 07:28:08;;;;;;;3.05;0.80;;;;;;;;;;4913830;29;20472;-68
2022/03/14 07:30:36;;;;;;;3.15;0.70;;;;;;;;;;4913629;29;20052;-69
2022/03/14 07:33:02;;;;;;;3.05;0.88;;;;;;;;;;4913477;29;20048;-68
2022/03/14 07:35:29;;;;;;;1.70;0.80;;;;;;;;;;4915523;29;20075;-69
2022/03/14 07:37:56;;;;;;;2.40;0.80;;;;;;;;;;4917521;29;20067;-68
2022/03/14 07:40:23;;;;;;;1.75;0.60;;;;;;;;;;4917517;29;20527;-69
2022/03/14 07:42:54;;;;;;;3.95;0.85;;;;;;;;;;4917380;29;20463;-69
2022/03/14 07:45:21;;;;;;;2.47;1.33;;;;;;;;;;4917378;29;20104;-68
2022/03/14 07:47:48;;;;;;;9.30;3.30;;;;;;;;;;4917248;29;20052;-69
2022/03/14 07:50:15;;;;;;;5.60;1.58;;;;;;;;;;4917191;29;20500;-69
2022/03/14 07:52:43;;;;;;;4.28;1.33;;;;;;;;;;4915962;29;20040;-69
2022/03/14 07:55:10;;;;;;;5.53;1.63;;;;;;;;;;4931613;29;20056;-69
2022/03/14 07:57:37;;;;;;;5.93;0.90;;;;;;;;;;4917187;29;20056;-69
2022/03/14 08:00:12;;;;;;;7.13;0.90;;;;;;;;;;4917549;29;20047;-70
2022/03/14 08:02:47;;;;;;;6.38;4.25;;;;;;;;;;4930808;29;20108;-69
2022/03/14 08:05:16;;;;;;;3.95;1.13;;;;;;;;;;4924935;29;20052;-68
2022/03/14 08:07:45;;;;;;;5.97;1.55;;;;;;;;;;4923362;29;20056;-68
2022/03/14 08:10:17;;;;;;;3.42;1.05;;;;;;;;;;4924171;29;20056;-68
2022/03/14 08:12:46;;;;;;;7.30;2.47;;;;;;;;;;4925371;29;20455;-67
2022/03/14 08:15:30;;;;;;;2.33;0.70;;;;;;;;;;4925230;29;20051;-68
2022/03/14 08:17:59;;;;;;;6.05;1.55;;;;;;;;;;4928091;29;20525;-68
2022/03/14 08:20:26;;;;;;;10.43;3.53;;;;;;;;;;4929176;29;20052;-68
2022/03/14 08:22:54;;;;;;;9.60;1.73;;;;;;;;;;4930903;29;20055;-69
2022/03/14 08:25:21;;;;;;;5.35;1.10;;;;;;;;;;4923539;29;20051;-69
2022/03/14 08:27:48;;;;;;;7.18;1.20;;;;;;;;;;4924370;29;20475;-68
2022/03/14 08:30:16;;;;;;;5.40;1.58;;;;;;;;;;4924129;29;20056;-69
2022/03/14 08:32:42;;;;;;;5.88;1.40;;;;;;;;;;4924644;29;20095;-68
2022/03/14 08:35:10;;;;;;;7.47;1.27;;;;;;;;;;4939902;29;20447;-69
2022/03/14 08:37:42;;;;;;;4.22;0.75;;;;;;;;;;4919727;29;20455;-70
2022/03/14 08:40:11;;;;;;;6.35;1.35;;;;;;;;;;4926090;29;20051;-69
2022/03/14 08:42:38;;;;;;;2.60;1.10;;;;;;;;;;4926778;29;20115;-71
2022/03/14 08:45:06;;;;;;;3.67;0.90;;;;;;;;;;4922361;29;20047;-69
2022/03/14 08:47:36;;;;;;;6.55;1.42;;;;;;;;;;4933482;29;20103;-73
2022/03/14 08:50:07;;;;;;;3.88;0.90;;;;;;;;;;4933997;29;20047;-75
2022/03/14 08:52:37;;;;;;;5.95;1.20;;;;;;;;;;4932118;29;20101;-73
2022/03/14 08:55:05;;;;;;;3.78;0.90;;;;;;;;;;4900444;29;20403;-68
2022/03/14 08:57:42;;;;;;;3.70;1.17;;;;;;;;;;4929986;29;20677;-77
2022/03/14 09:00:17;;;;;;;5.03;1.13;;;;;;;;;;4923485;29;20119;-75
2022/03/14 09:02:44;;;;;;;6.88;0.80;;;;;;;;;;4915753;29;20052;-70
2022/03/14 09:05:11;;;;;;;5.55;1.23;;;;;;;;;;4926674;29;20051;-74
2022/03/14 09:07:40;;;;;;;5.45;0.70;;;;;;;;;;4931583;29;20060;-74
2022/03/14 09:10:12;;;;;;;3.08;0.90;;;;;;;;;;4924219;29;20047;-71
2022/03/14 09:12:45;;;;;;;5.50;0.82;;;;;;;;;;4868916;29;20056;-75
2022/03/14 09:15:12;;;;;;;2.80;0.82;;;;;;;;;;4888541;29;20120;-74
2022/03/14 09:17:50;;;;;;;3.58;0.90;;;;;;;;;;4887510;29;20056;-78
2022/03/14 09:20:27;;;;;;;2.75;0.80;;;;;;;;;;4897738;29;20087;-76
2022/03/14 09:23:26;;;;;;;3.50;0.80;;;;;;;;;;4889239;29;20109;-76
2022/03/14 09:25:56;;;;;;;3.97;0.70;;;;;;;;;;4883368;29;20052;-74
2022/03/14 09:28:23;;;;;;;5.22;1.58;;;;;;;;;;4891076;29;20045;-74
2022/03/14 09:30:50;;;;;;;4.13;0.60;;;;;;;;;;4884660;29;20053;-76
2022/03/14 09:33:17;;;;;;;4.18;0.93;;;;;;;;;;4873530;29;20049;-71
2022/03/14 09:35:44;;;;;;;3.17;0.93;;;;;;;;;;4884372;29;20405;-72
2022/03/14 09:38:15;;;;;;;3.70;0.98;;;;;;;;;;4886290;29;20071;-69
2022/03/14 09:40:41;;;;;;;5.32;1.05;;;;;;;;;;4884081;29;20116;-72
2022/03/14 09:43:08;;;;;;;7.18;1.13;;;;;;;;;;4900218;29;20104;-70
2022/03/14 09:45:36;;;;;;;8.10;1.40;;;;;;;;;;4886375;29;20525;-70
2022/03/14 09:48:03;;;;;;;17.35;1.35;;;;;;;;;;4886046;29;20056;-70
2022/03/14 09:50:39;;;;;;;3.80;1.23;;;;;;;;;;4884309;29;20116;-70
2022/03/14 09:53:11;;;;;;;5.97;1.70;;;;;;;;;;4887159;29;20470;-70
2022/03/14 09:55:42;;;;;;;3.80;1.52;;;;;;;;;;4888268;29;20056;-70
2022/03/14 09:58:12;;;;;;;4.05;1.00;;;;;;;;;;4885287;29;20060;-70
2022/03/14 10:00:40;;;;;;;4.25;1.20;;;;;;;;;;4885059;29;20085;-70
2022/03/14 10:03:13;;;;;;;4.80;0.75;;;;;;;;;;4886598;29;20056;-70
2022/03/14 10:05:41;;;;;;;9.40;1.95;;;;;;;;;;4884091;29;20504;-70
2022/03/14 10:08:07;;;;;;;3.85;0.68;;;;;;;;;;4889201;29;20520;-70
2022/03/14 10:10:37;;;;;;;4.55;1.05;;;;;;;;;;4886133;29;20089;-70
2022/03/14 10:13:08;;;;;;;2.63;0.80;;;;;;;;;;4887520;29;20048;-70
2022/03/14 10:15:37;;;;;;;4.28;1.30;;;;;;;;;;4884559;29;20147;-70
2022/03/14 10:18:11;;;;;;;4.65;1.00;;;;;;;;;;4886456;29;20049;-70
2022/03/14 10:21:02;;;;;;;2.40;0.82;;;;;;;;;;4887097;29;20048;-70
2022/03/14 10:23:44;;;;;;;2.72;0.68;;;;;;;;;;4886904;29;20045;-70
2022/03/14 10:26:21;;;;;;;6.03;1.35;;;;;;;;;;4885316;29;20045;-70
2022/03/14 10:28:54;;;;;;;4.82;0.77;;;;;;;;;;4881844;29;20060;-70
2022/03/14 10:31:38;;;;;;;2.90;0.80;;;;;;;;;;4883725;29;20053;-70
2022/03/14 10:34:10;;;;;;;2.95;0.90;;;;;;;;;;4885591;29;20113;-70
2022/03/14 10:36:47;;;;;;;5.57;1.77;;;;;;;;;;4883174;29;20473;-70
2022/03/14 10:39:22;;;;;;;3.60;1.08;;;;;;;;;;4886482;29;20473;-70
2022/03/14 10:42:05;;;;;;;4.50;1.05;;;;;;;;;;4902229;29;20049;-70
2022/03/14 10:44:45;;;;;;;3.05;0.95;;;;;;;;;;4887018;29;20564;-70
2022/03/14 10:47:13;;;;;;;3.38;1.13;;;;;;;;;;4883197;29;20505;-70
2022/03/14 10:49:43;;;;;;;3.38;0.77;;;;;;;;;;4884455;29;20496;-70
2022/03/14 10:52:11;;;;;;;6.45;1.63;;;;;;;;;;4881847;29;20045;-70
2022/03/14 10:54:38;;;;;;;1.30;0.50;;;;;;;;;;4885575;29;20056;-70
2022/03/14 10:57:12;;;;;;;2.67;0.65;;;;;;;;;;4883134;29;20113;-70
2022/03/14 10:59:47;;;;;;;5.05;0.75;;;;;;;;;;4886579;29;20417;-70
2022/03/14 11:02:19;;;;;;;3.92;0.85;;;;;;;;;;4887487;29;20406;-70
2022/03/14 11:04:48;;;;;;;4.60;0.70;;;;;;;;;;4883532;29;20105;-70
2022/03/14 11:07:17;;;;;;;6.90;1.00;;;;;;;;;;4885495;29;20096;-70
2022/03/14 11:09:48;;;;;;;3.90;1.02;;;;;;;;;;4884801;29;20056;-70
2022/03/14 11:12:17;;;;;;;2.47;0.88;;;;;;;;;;4883195;29;20117;-70
2022/03/14 11:15:07;;;;;;;2.28;1.05;;;;;;;;;;4884350;29;20097;-70
2022/03/14 11:17:35;;;;;;;4.28;0.85;;;;;;;;;;4887582;29;20187;-70
2022/03/14 11:20:22;;;;;;;2.35;0.80;;;;;;;;;;4882579;29;20133;-69
2022/03/14 11:22:49;;;;;;;4.88;0.88;;;;;;;;;;4869272;29;20080;-70
2022/03/14 11:25:16;;;;;;;2.17;0.70;;;;;;;;;;4900854;29;20473;-70
2022/03/14 11:27:43;;;;;;;4.50;0.98;;;;;;;;;;4893543;29;20057;-70
2022/03/14 11:30:12;;;;;;;7.18;1.10;;;;;;;;;;4867714;29;20290;-70
2022/03/14 11:32:41;;;;;;;8.52;1.08;;;;;;;;;;4883087;29;20060;-70
2022/03/14 11:35:09;;;;;;;4.00;0.68;;;;;;;;;;4886518;29;20057;-70
2022/03/14 11:37:36;;;;;;;3.13;0.82;;;;;;;;;;4885117;29;20128;-70
2022/03/14 11:40:05;;;;;;;5.20;0.80;;;;;;;;;;4886028;29;20101;-70
2022/03/14 11:42:32;;;;;;;3.13;1.00;;;;;;;;;;4882749;29;20145;-70
2022/03/14 11:45:05;;;;;;;2.63;0.90;;;;;;;;;;4886641;29;20080;-70
2022/03/14 11:47:32;;;;;;;4.22;1.02;;;;;;;;;;4869469;29;20049;-71
2022/03/14 11:50:03;;;;;;;4.10;1.10;;;;;;;;;;4885680;29;20132;-70
2022/03/14 11:52:37;;;;;;;5.25;1.08;;;;;;;;;;4899759;29;20056;-71
2022/03/14 11:55:22;;;;;;;1.67;0.73;;;;;;;;;;4884343;29;20049;-71
2022/03/14 11:57:49;;;;;;;3.30;1.00;;;;;;;;;;4884741;29;20060;-68
2022/03/14 12:00:21;;;;;;;5.20;0.73;;;;;;;;;;4883537;29;20053;-70
2022/03/14 12:02:49;;;;;;;1.48;0.63;;;;;;;;;;4881336;29;20065;-70
2022/03/14 12:05:22;;;;;;;3.65;0.85;;;;;;;;;;4882154;29;20049;-70
2022/03/14 12:07:51;;;;;;;2.00;0.50;;;;;;;;;;4887520;29;20081;-71
2022/03/14 12:10:26;;;;;;;3.45;0.70;;;;;;;;;;4881685;29;20520;-70
2022/03/14 12:12:55;;;;;;;4.75;1.30;;;;;;;;;;4884381;29;20059;-70
2022/03/14 12:15:44;;;;;;;2.53;0.68;;;;;;;;;;4886052;29;20045;-69
2022/03/14 12:18:27;;;;;;;3.72;0.80;;;;;;;;;;4885932;29;20052;-70
2022/03/14 12:21:03;;;;;;;2.78;1.13;;;;;;;;;;4883877;29;20084;-69
2022/03/14 12:23:31;;;;;;;3.38;0.85;;;;;;;;;;4888611;29;20077;-69
2022/03/14 12:25:59;;;;;;;3.05;0.75;;;;;;;;;;4886892;29;20535;-68
2022/03/14 12:28:36;;;;;;;2.60;0.90;;;;;;;;;;4889110;29;20111;-68
2022/03/14 12:31:13;;;;;;;2.78;0.93;;;;;;;;;;4884817;29;20504;-68
2022/03/14 12:33:48;;;;;;;1.83;0.65;;;;;;;;;;4889495;29;20075;-69
2022/03/14 12:36:39;;;;;;;4.47;0.70;;;;;;;;;;4883618;29;20120;-69
2022/03/14 12:39:09;;;;;;;3.58;0.70;;;;;;;;;;4892688;29;20200;-69
2022/03/14 12:41:37;;;;;;;3.08;0.73;;;;;;;;;;4886821;29;20070;-70
2022/03/14 12:44:19;;;;;;;3.05;0.60;;;;;;;;;;4883202;29;20056;-69
2022/03/14 12:46:48;;;;;;;1.38;0.40;;;;;;;;;;4885852;29;20049;-69
2022/03/14 12:49:39;;;;;;;4.10;0.70;;;;;;;;;;4885492;29;20067;-69
2022/03/14 12:52:16;;;;;;;2.80;0.80;;;;;;;;;;4885838;29;20052;-69
2022/03/14 12:54:44;;;;;;;5.72;0.85;;;;;;;;;;4891950;29;20052;-69
2022/03/14 12:57:17;;;;;;;2.92;0.70;;;;;;;;;;4885927;29;20507;-68
2022/03/14 12:59:48;;;;;;;3.67;0.75;;;;;;;;;;4883356;29;20059;-69
2022/03/14 13:02:25;;;;;;;4.82;0.60;;;;;;;;;;4887706;29;20052;-69
2022/03/14 13:05:02;;;;;;;2.80;0.75;;;;;;;;;;4885047;29;20052;-69
2022/03/14 13:07:30;;;;;;;4.47;0.95;;;;;;;;;;4891759;29;20048;-69
2022/03/14 13:10:03;;;;;;;3.75;0.70;;;;;;;;;;4886973;29;20136;-69
2022/03/14 13:12:30;;;;;;;4.32;0.80;;;;;;;;;;4893049;29;20497;-70
2022/03/14 13:15:05;;;;;;;6.72;3.10;;;;;;;;;;4892587;29;20040;-69
2022/03/14 13:17:45;;;;;;;11.10;4.93;;;;;;;;;;4893233;29;20088;-70
2022/03/14 13:20:27;;;;;;;4.15;1.50;;;;;;;;;;4894177;29;20444;-69
2022/03/14 13:22:55;;;;;;;2.78;0.90;;;;;;;;;;4894327;29;20504;-69
2022/03/14 13:25:32;;;;;;;2.45;0.90;;;;;;;;;;4893803;29;20049;-69
2022/03/14 13:27:59;;;;;;;4.75;0.90;;;;;;;;;;4893328;29;20473;-70
2022/03/14 13:30:45;;;;;;;3.33;0.77;;;;;;;;;;4889589;29;20060;-69
2022/03/14 13:33:24;;;;;;;4.18;0.73;;;;;;;;;;4886311;29;20045;-69
2022/03/14 13:35:55;;;;;;;2.33;0.80;;;;;;;;;;4885577;29;20112;-70
2022/03/14 13:38:27;;;;;;;4.00;1.00;;;;;;;;;;4884841;29;20077;-70
2022/03/14 13:40:55;;;;;;;3.72;0.90;;;;;;;;;;4888108;29;20049;-69
2022/03/14 13:43:22;;;;;;;5.10;1.33;;;;;;;;;;4898167;29;20063;-69
2022/03/14 13:45:49;;;;;;;5.13;0.73;;;;;;;;;;4885977;29;20504;-69
2022/03/14 13:48:22;;;;;;;2.78;1.10;;;;;;;;;;4883234;29;20132;-69
2022/03/14 13:50:49;;;;;;;1.95;0.70;;;;;;;;;;4888655;29;20511;-69
2022/03/14 13:53:22;;;;;;;1.95;0.68;;;;;;;;;;4885390;29;20105;-69
2022/03/14 13:55:56;;;;;;;2.33;0.70;;;;;;;;;;4884083;29;20053;-69
2022/03/14 13:58:27;;;;;;;2.45;0.70;;;;;;;;;;4885132;29;20052;-69
2022/03/14 14:00:53;;;;;;;5.93;1.02;;;;;;;;;;4885768;29;20076;-70
2022/03/14 14:03:24;;;;;;;2.35;0.88;;;;;;;;;;4885022;29;20099;-69
2022/03/14 14:05:51;;;;;;;2.60;0.75;;;;;;;;;;4885110;29;20561;-69
2022/03/14 14:08:34;;;;;;;3.15;1.00;;;;;;;;;;4884484;29;20053;-69
2022/03/14 14:11:01;;;;;;;3.08;1.27;;;;;;;;;;4885408;29;20057;-69
2022/03/14 14:13:47;;;;;;;4.00;1.08;;;;;;;;;;4882097;29;20109;-70
2022/03/14 14:16:20;;;;;;;3.05;0.80;;;;;;;;;;4886839;29;20473;-69
2022/03/14 14:19:05;;;;;;;;;;;;;;;;;;4887383;29;20066;-69
2022/03/14 14:21:32;;;;;;;2.17;0.70;;;;;;;;;;4885074;29;20356;-69
2022/03/14 14:23:59;;;;;;;2.08;0.60;;;;;;;;;;4883380;29;20513;-69
2022/03/14 14:26:30;;;;;;;4.60;0.70;;;;;;;;;;4884452;29;20116;-69
2022/03/14 14:28:56;;;;;;;2.90;0.70;;;;;;;;;;4884644;29;20057;-69
2022/03/14 14:31:23;;;;;;;3.25;0.77;;;;;;;;;;4886351;29;20084;-70
2022/03/14 14:33:51;;;;;;;3.17;0.70;;;;;;;;;;4885952;29;20128;-68
2022/03/14 14:36:18;;;;;;;2.63;0.68;;;;;;;;;;4884880;29;20112;-68
2022/03/14 14:38:45;;;;;;;2.00;0.85;;;;;;;;;;4887456;29;20060;-68
2022/03/14 14:41:13;;;;;;;3.25;0.77;;;;;;;;;;4886711;29;20044;-69
2022/03/14 14:43:43;;;;;;;3.30;0.90;;;;;;;;;;4886625;29;20180;-69
2022/03/14 14:46:09;;;;;;;2.33;0.75;;;;;;;;;;4881839;29;20075;-69
2022/03/14 14:48:36;;;;;;;2.00;0.90;;;;;;;;;;4885156;29;20323;-69
2022/03/14 14:51:04;;;;;;;2.28;0.75;;;;;;;;;;4884646;29;20100;-68